Résultats

Trail La Calanquaise:14Km-Tous. Édition 2021.

14 Km
06/06/2021 à 08:00:00 - Carry le rouet (Bouches-du-Rhône)
168 arrivant(e)s.


 
Les autres classements de cet évènement




Place▲ Temps Dossard Nom Prenom Categ #Categ Sexe #Sexe Club Vit Moy Diplôme Partager
1 00:58:05 37 PIERREJEAN JEREMIE M0M 1 M 1 14.46
2 00:58:56 157 DJOUAMBI RAFIK M2M 1 M 2 MARSEILLE 14.25
3 01:00:47 11 CLARINARD MICKAEL M0M 2 M 3 MASSILIA TRIATHLON 13.82
4 01:01:26 171 BERNARDINI BENJAMIN SEM 1 M 4 AIX ATHLE PROVENCE TRAIL 13.67
5 01:01:38 14 N:Anonyme 14 P:Anonyme 14 SEM 2 M 5 13.63
6 01:02:12 139 LEGER HUGO SEM 3 M 6 TEAM EVADICT 13.50
7 01:03:40 145 SAF KARIM M2M 2 M 7 BOXING CLUB HIPPO 13.19
8 01:03:46 143 RIOU SIMON SEM 4 M 8 13.17
9 01:03:57 167 SANCHEZ SERGE M4M 1 M 9 MASSILIA MARATHON 13.14
10 01:04:34 32 NAVARRO FABIEN M1M 1 M 10 13.01
11 01:04:35 9 CHARRIERE CLEMENT SEM 5 M 11 13.01
12 01:04:40 2 SEMAIL ALEXANDRE M0M 3 M 12 12.99
13 01:04:46 84 SEMPERE RAPHAEL M1M 2 M 13 12.97
14 01:05:09 66 NGUYEN VINH M0M 4 M 14 12.89
15 01:06:23 44 VALLEE NICOLAS SEM 6 M 15 12.65
16 01:06:24 123 LANTENET PATRICK M5M 1 M 16 COURIR A VITROLLES 12.65
17 01:06:31 161 GORBAN IRENE M0F 1 F 1 KM 42.195 MARSEILLE 12.63
18 01:06:39 13 DE-GENNARO THOMAS SEM 7 M 17 NWA COTE BLEUE 12.60
19 01:06:44 176 COUDRAY ALEXIA M0F 2 F 2 TEAM TRAIL CIMALP SABLET TERRE DE TRAIL 12.59
20 01:06:55 50 BRUYAT MATHIS ESM 1 M 18 VELO CLUB RAMBERTOIS 12.55
21 01:07:13 36 PIEDBOIS PAULINE M0F 3 F 3 KMS 12.50
22 01:07:15 80 GIANI MICHEL M3M 1 M 19 TEAM 13 12.49
23 01:07:49 47 BARRAL JEAN-MARC M2M 3 M 20 NWA COTE BLEUE 12.39
24 01:08:39 30 MORIN TRISTAN SEM 8 M 21 12.24
25 01:08:42 56 GUTIERREZ MICKAEL M1M 3 M 22 PAYS D'AIX TRAIL 12.23
26 01:09:32 39 RAFAI STEPHANE M0M 5 M 23 12.08
27 01:09:41 114 CABANE MICHAEL SEM 9 M 24 12.05
28 01:10:31 46 BAKIRDJIAN VIKEN M0M 6 M 25 RUNNERS DE L EXTREME 11.91
29 01:10:51 74 VESTRI JEAN-LUC M3M 2 M 26 REALTOR SEM EAUX DE MARSEILLE 11.86
30 01:10:56 19 N:Anonyme 19 P:Anonyme 19 M3M 3 M 27 KM 42.195 MARSEILLE 11.84
31 01:10:56 21 HAMOU STEPHANE M0M 7 M 28 11.84
32 01:11:33 90 CUENOT ERIC M2M 4 M 29 TEAM EVADICT-PAT 11.74
33 01:11:33 107 VOILMY LUDOVIC M0M 8 M 30 PAYS D?AIX TRAIL 11.74
34 01:11:43 175 CHANTIER HUGO ESM 2 M 31 11.71
35 01:12:18 73 VERRECCHIA ALEXIS SEM 10 M 32 NWA COTE BLEUE 11.62
36 01:12:46 59 LEJEUNE SEBASTIEN M1M 4 M 33 11.54
37 01:12:52 173 BOLEA GAETAN SEM 11 M 34 11.53
38 01:12:53 87 TONELLI MARTINA SEF 1 F 4 11.53
39 01:13:00 65 MIRETTI GUILLAUME M2M 5 M 35 11.51
40 01:13:42 101 NENZI JACQUES M4M 2 M 36 VTT DU GARLABAN 11.40
41 01:14:02 41 REY QUENTIN JUM 1 M 37 CLUB OLYMPIQUE FOS SUR MER 11.35
42 01:14:10 93 FONTAINE JEAN-ALBERT M0M 9 M 38 KM 42.195 MARSEILLE 11.33
43 01:14:30 85 SERRA DENIS M5M 2 M 39 KM 42.195 MARSEILLE 11.28
44 01:14:45 77 BOBE BETTY SEF 2 F 5 11.24
45 01:14:54 12 COSTE PIERRE M3M 4 M 40 CSPCG 13 11.21
46 01:14:58 146 SAID-MADI DHOUL M1M 5 M 41 KM 42.195 MARSEILLE 11.20
47 01:14:59 48 BARRAL YANN JUM 2 M 42 NWA RUN ENSUES 11.20
48 01:15:41 130 CASTELLANI CEDRIC M1M 6 M 43 TESSIETIAMO 11.10
49 01:15:47 5 GROSFILS JEAN-MARC M4M 3 M 44 HERBALIFE NUTRITION 11.08
50 01:15:54 147 SINNAMA PIERRE M3M 5 M 45 KM 42.195 MARSEILLE 11.07
51 01:16:08 132 DOS-SANTOS SANDRA M1F 1 F 6 11.03
52 01:16:51 128 VICARI BRUNO M4M 4 M 46 LES FOULEES PELISSANNAISES 10.93
53 01:16:52 24 LAINE NICOLAS M0M 10 M 47 10.93
54 01:17:23 34 NDIAYE JEAN-PIERRE M4M 5 M 48 CHRONOLIBRE 10.86
55 01:17:52 100 NAVELOT MATHIEU M0M 11 M 49 10.79
56 01:18:05 129 BEAUCHAMP GUILLAUME M0M 12 M 50 10.76
57 01:18:15 152 BASSET PIERRE M3M 6 M 51 COURIR A SAUSSET 10.73
58 01:18:30 53 GOMEZ-RASCADO JOSE M2M 6 M 52 ISTRES SPORTS TRIATHLON 10.70
59 01:18:41 68 POUGEON JEREMY SEM 12 M 53 10.68
60 01:18:42 150 ZANINI PATRICK M6M 1 M 54 KM 42.195 MARSEILLE 10.67
61 01:18:42 57 HINDENOCH CHRISTOPHE M3M 7 M 55 RUNTRI 10.67
62 01:18:51 38 PINAUD LEOPOLD SEM 13 M 56 10.65
63 01:19:02 35 NOEL CARL M2M 7 M 57 J.C BAUDOUR 10.63
64 01:19:47 155 DALLE NATHALIE SEF 3 F 7 COURIR A SAUSSET 10.53
65 01:20:02 42 REY STEPHANE M2M 8 M 58 CLUB OLYMPIQUE FOS SUR MER 10.50
66 01:20:21 33 NAVARRO ROBERT M7M 1 M 59 10.45
67 01:20:44 172 BESSET AUBE M3F 1 F 8 NWA TRAIL COTE BLEUE 10.40
68 01:20:58 102 OGIER PHILIPPE M3M 8 M 60 RCC 10.37
69 01:20:58 92 FERNANDEZ RENE M3M 9 M 61 RCC 10.37
70 01:21:05 168 TORREGROSSA GUILLAUME M1M 7 M 62 10.36
71 01:21:13 1 PATRIZI FLORENT M1M 8 M 63 10.34
72 01:21:29 141 MOGNOT XAVIER M0M 13 M 64 10.31
73 01:21:37 94 GUNTZBURGER JONATHAN M0M 14 M 65 COUR FOREST COUR 10.29
74 01:21:42 91 DE-MATRA FABIEN M2M 9 M 66 SCO SAINTE MARGUERITE 10.28
75 01:21:56 138 JOLY STEPHANIE M2F 1 F 9 KM 42.195 MARSEILLE 10.25
76 01:21:59 126 POCCI ADRIAN SEM 14 M 67 PAYS D'AIX TRAIL 10.25
77 01:22:03 184 SOTO ALBAN M1M 9 M 68 MACADAM BASKETS 10.24
78 01:22:07 181 MOY NILS SEM 15 M 69 10.23
79 01:22:41 158 DOS-SANTOS/GOUIRAN/CANNONE FREDERIC/JULIEN/PATRICE THOM 1 M 70 LES MUSICIENS 10.16
80 01:23:14 78 FAYET LAURENT M1M 10 M 71 10.09
81 01:23:27 15 FOUCAULT JEAN-PIERRE M3M 10 M 72 MARTIGUES AVIRON CLUB 10.07
82 01:23:45 79 FOUQUERE BRUNO M5M 3 M 73 LES EXCURSIONNISTES MARSEILLAIS 10.03
83 01:23:46 134 EL-ATRI ANIS M1M 11 M 74 BOXING CLUB HIPPO 10.03
84 01:24:17 10 CISTERNA SANDRINE M2F 2 F 10 9.97
85 01:25:08 31 MOULY NICOLAS M4M 6 M 75 CSPCG13 9.87
86 01:25:17 83 OVA FABIENNE M1F 2 F 11 ANLV 9.85
87 01:25:25 115 CRENN ARNAUD M0M 15 M 76 9.83
88 01:25:44 166 MICHEL QUENTIN M0M 16 M 77 9.80
89 01:25:48 137 INGRASSIA MICHAEL M0M 17 M 78 LES BIPEDES DE LA VAUNAGE 9.79
90 01:26:01 144 ROSTAN MATHILDE SEF 4 F 12 9.77
91 01:26:11 51 BUISSON PATRICK M3M 11 M 79 CANICROSS13 9.75
92 01:26:20 62 MASSE JEAN-YVES M5M 4 M 80 KM 42.195 MARSEILLE 9.73
93 01:26:31 174 CENDRES AURELIE M0F 4 F 13 9.71
94 01:26:41 133 DUPREZ FANNY M2F 3 F 14 9.69
95 01:26:44 164 LOUREIRO MARCO SEM 16 M 81 9.68
96 01:26:49 162 HOPP CEDRIC M3M 12 M 82 NAOS 9.68
97 01:27:19 124 LE-COZ MARC M5M 5 M 83 9.62
98 01:27:25 64 MENAGER GREGORIE M2F 4 F 15 OLYMPIQUE CABRIES CALAS 9.61
99 01:27:56 98 MAILLIS MANU M1M 12 M 84 ESSALIN DE GIRAUD 9.55
100 01:27:59 52 DER-KRIKORIAN FRANCOISE M4F 1 F 16 MACADAM BASKETS AS CE CMA-CGM 9.55